sensor_id;sensor_type;location;lat;lon;timestamp;temperature;humidity
19085;DHT22;9675;51.538;6.728;2023-04-26T00:00:02;9.30;99.90
19085;DHT22;9675;51.538;6.728;2023-04-26T00:02:34;9.30;99.90
19085;DHT22;9675;51.538;6.728;2023-04-26T00:05:02;9.30;99.90
19085;DHT22;9675;51.538;6.728;2023-04-26T00:07:29;9.20;99.90
19085;DHT22;9675;51.538;6.728;2023-04-26T00:09:57;9.20;99.90
19085;DHT22;9675;51.538;6.728;2023-04-26T00:12:24;9.20;99.90
19085;DHT22;9675;51.538;6.728;2023-04-26T00:14:51;9.20;99.90
19085;DHT22;9675;51.538;6.728;2023-04-26T00:17:18;9.10;99.90
19085;DHT22;9675;51.538;6.728;2023-04-26T00:19:46;9.10;99.90
19085;DHT22;9675;51.538;6.728;2023-04-26T00:22:13;9.10;99.90
19085;DHT22;9675;51.538;6.728;2023-04-26T00:24:40;9.00;99.90
19085;DHT22;9675;51.538;6.728;2023-04-26T00:27:08;9.00;99.90
19085;DHT22;9675;51.538;6.728;2023-04-26T00:29:35;8.90;99.90
19085;DHT22;9675;51.538;6.728;2023-04-26T00:32:03;8.90;99.90
19085;DHT22;9675;51.538;6.728;2023-04-26T00:34:31;8.90;99.90
19085;DHT22;9675;51.538;6.728;2023-04-26T00:37:00;8.80;99.90
19085;DHT22;9675;51.538;6.728;2023-04-26T00:39:28;8.80;99.90
19085;DHT22;9675;51.538;6.728;2023-04-26T00:41:55;8.80;99.90
19085;DHT22;9675;51.538;6.728;2023-04-26T00:44:23;8.80;99.90
19085;DHT22;9675;51.538;6.728;2023-04-26T00:46:51;8.70;99.90
19085;DHT22;9675;51.538;6.728;2023-04-26T00:49:23;8.70;99.90
19085;DHT22;9675;51.538;6.728;2023-04-26T00:51:51;8.70;99.90
19085;DHT22;9675;51.538;6.728;2023-04-26T00:54:20;8.60;99.90
19085;DHT22;9675;51.538;6.728;2023-04-26T00:56:47;8.60;99.90
19085;DHT22;9675;51.538;6.728;2023-04-26T00:59:17;8.60;99.90
19085;DHT22;9675;51.538;6.728;2023-04-26T01:01:45;8.60;99.90
19085;DHT22;9675;51.538;6.728;2023-04-26T01:04:13;8.50;99.90
19085;DHT22;9675;51.538;6.728;2023-04-26T01:06:40;8.50;99.90
19085;DHT22;9675;51.538;6.728;2023-04-26T01:09:07;8.50;99.90
19085;DHT22;9675;51.538;6.728;2023-04-26T01:11:38;8.40;99.90
19085;DHT22;9675;51.538;6.728;2023-04-26T01:14:05;8.40;99.90
19085;DHT22;9675;51.538;6.728;2023-04-26T01:16:33;8.40;99.90
19085;DHT22;9675;51.538;6.728;2023-04-26T01:19:06;8.40;99.90
19085;DHT22;9675;51.538;6.728;2023-04-26T01:21:35;8.30;99.90
19085;DHT22;9675;51.538;6.728;2023-04-26T01:24:04;8.30;99.90
19085;DHT22;9675;51.538;6.728;2023-04-26T01:26:32;8.30;99.90
19085;DHT22;9675;51.538;6.728;2023-04-26T01:28:59;8.30;99.90
19085;DHT22;9675;51.538;6.728;2023-04-26T01:31:27;8.30;99.90
19085;DHT22;9675;51.538;6.728;2023-04-26T01:33:54;8.20;99.90
19085;DHT22;9675;51.538;6.728;2023-04-26T01:36:21;8.20;99.90
19085;DHT22;9675;51.538;6.728;2023-04-26T01:38:48;8.20;99.90
19085;DHT22;9675;51.538;6.728;2023-04-26T01:41:16;8.20;99.90
19085;DHT22;9675;51.538;6.728;2023-04-26T01:43:43;8.20;99.90
19085;DHT22;9675;51.538;6.728;2023-04-26T01:46:10;8.10;99.90
19085;DHT22;9675;51.538;6.728;2023-04-26T01:48:37;8.10;99.90
19085;DHT22;9675;51.538;6.728;2023-04-26T01:51:05;8.10;99.90
19085;DHT22;9675;51.538;6.728;2023-04-26T01:53:32;8.10;99.90
19085;DHT22;9675;51.538;6.728;2023-04-26T01:55:59;8.10;99.90
19085;DHT22;9675;51.538;6.728;2023-04-26T01:58:28;8.00;99.90
19085;DHT22;9675;51.538;6.728;2023-04-26T02:00:56;8.00;99.90
19085;DHT22;9675;51.538;6.728;2023-04-26T02:03:32;8.00;99.90
19085;DHT22;9675;51.538;6.728;2023-04-26T02:05:59;8.00;99.90
19085;DHT22;9675;51.538;6.728;2023-04-26T02:08:26;8.00;99.90
19085;DHT22;9675;51.538;6.728;2023-04-26T02:10:53;7.90;99.90
19085;DHT22;9675;51.538;6.728;2023-04-26T02:13:20;7.90;99.90
19085;DHT22;9675;51.538;6.728;2023-04-26T02:15:49;7.90;99.90
19085;DHT22;9675;51.538;6.728;2023-04-26T02:18:16;7.90;99.90
19085;DHT22;9675;51.538;6.728;2023-04-26T02:20:46;7.80;99.90
19085;DHT22;9675;51.538;6.728;2023-04-26T02:23:13;7.80;99.90
19085;DHT22;9675;51.538;6.728;2023-04-26T02:25:41;7.80;99.90
19085;DHT22;9675;51.538;6.728;2023-04-26T02:28:11;7.80;99.90
19085;DHT22;9675;51.538;6.728;2023-04-26T02:30:39;7.80;99.90
19085;DHT22;9675;51.538;6.728;2023-04-26T02:33:07;7.80;99.90
19085;DHT22;9675;51.538;6.728;2023-04-26T02:35:35;7.70;99.90
19085;DHT22;9675;51.538;6.728;2023-04-26T02:38:02;7.70;99.90
19085;DHT22;9675;51.538;6.728;2023-04-26T02:40:29;7.70;99.90
19085;DHT22;9675;51.538;6.728;2023-04-26T02:42:56;7.70;99.90
19085;DHT22;9675;51.538;6.728;2023-04-26T02:45:23;7.60;99.90
19085;DHT22;9675;51.538;6.728;2023-04-26T02:47:50;7.60;99.90
19085;DHT22;9675;51.538;6.728;2023-04-26T02:50:19;7.60;99.90
19085;DHT22;9675;51.538;6.728;2023-04-26T02:52:46;7.60;99.90
19085;DHT22;9675;51.538;6.728;2023-04-26T02:55:13;7.60;99.90
19085;DHT22;9675;51.538;6.728;2023-04-26T02:57:40;7.50;99.90
19085;DHT22;9675;51.538;6.728;2023-04-26T03:00:08;7.50;99.90
19085;DHT22;9675;51.538;6.728;2023-04-26T03:02:38;7.50;99.90
19085;DHT22;9675;51.538;6.728;2023-04-26T03:05:05;7.50;99.90
19085;DHT22;9675;51.538;6.728;2023-04-26T03:07:35;7.40;99.90
19085;DHT22;9675;51.538;6.728;2023-04-26T03:10:02;7.40;99.90
19085;DHT22;9675;51.538;6.728;2023-04-26T03:12:30;7.40;99.90
19085;DHT22;9675;51.538;6.728;2023-04-26T03:14:57;7.40;99.90
19085;DHT22;9675;51.538;6.728;2023-04-26T03:17:24;7.40;99.90
19085;DHT22;9675;51.538;6.728;2023-04-26T03:19:51;7.40;99.90
19085;DHT22;9675;51.538;6.728;2023-04-26T03:22:18;7.30;99.90
19085;DHT22;9675;51.538;6.728;2023-04-26T03:24:47;7.30;99.90
19085;DHT22;9675;51.538;6.728;2023-04-26T03:27:14;7.30;99.90
19085;DHT22;9675;51.538;6.728;2023-04-26T03:29:41;7.30;99.90
19085;DHT22;9675;51.538;6.728;2023-04-26T03:32:08;7.30;99.90
19085;DHT22;9675;51.538;6.728;2023-04-26T03:34:35;7.20;99.90
19085;DHT22;9675;51.538;6.728;2023-04-26T03:37:02;7.20;99.90
19085;DHT22;9675;51.538;6.728;2023-04-26T03:39:29;7.20;99.90
19085;DHT22;9675;51.538;6.728;2023-04-26T03:41:58;7.20;99.90
19085;DHT22;9675;51.538;6.728;2023-04-26T03:44:25;7.20;99.90
19085;DHT22;9675;51.538;6.728;2023-04-26T03:46:52;7.10;99.90
19085;DHT22;9675;51.538;6.728;2023-04-26T03:49:19;7.10;99.90
19085;DHT22;9675;51.538;6.728;2023-04-26T03:51:46;7.10;99.90
19085;DHT22;9675;51.538;6.728;2023-04-26T03:54:14;7.10;99.90
19085;DHT22;9675;51.538;6.728;2023-04-26T03:56:41;7.10;99.90
19085;DHT22;9675;51.538;6.728;2023-04-26T03:59:09;7.00;99.90
19085;DHT22;9675;51.538;6.728;2023-04-26T04:01:37;7.00;99.90
19085;DHT22;9675;51.538;6.728;2023-04-26T04:04:04;7.00;99.90
19085;DHT22;9675;51.538;6.728;2023-04-26T04:06:31;7.00;99.90
19085;DHT22;9675;51.538;6.728;2023-04-26T04:08:58;7.00;99.90
19085;DHT22;9675;51.538;6.728;2023-04-26T04:11:25;6.90;99.90
19085;DHT22;9675;51.538;6.728;2023-04-26T04:13:52;6.90;99.90
19085;DHT22;9675;51.538;6.728;2023-04-26T04:16:20;6.90;99.90
19085;DHT22;9675;51.538;6.728;2023-04-26T04:18:47;6.90;99.90
19085;DHT22;9675;51.538;6.728;2023-04-26T04:21:14;6.80;99.90
19085;DHT22;9675;51.538;6.728;2023-04-26T04:23:42;6.80;99.90
19085;DHT22;9675;51.538;6.728;2023-04-26T04:26:09;6.80;99.90
19085;DHT22;9675;51.538;6.728;2023-04-26T04:28:37;6.80;99.90
19085;DHT22;9675;51.538;6.728;2023-04-26T04:31:06;6.80;99.90
19085;DHT22;9675;51.538;6.728;2023-04-26T04:33:35;6.70;99.90
19085;DHT22;9675;51.538;6.728;2023-04-26T04:36:02;6.70;99.90
19085;DHT22;9675;51.538;6.728;2023-04-26T04:38:31;6.70;99.90
19085;DHT22;9675;51.538;6.728;2023-04-26T04:40:58;6.70;99.90
19085;DHT22;9675;51.538;6.728;2023-04-26T04:43:25;6.70;99.90
19085;DHT22;9675;51.538;6.728;2023-04-26T04:45:52;6.60;99.90
19085;DHT22;9675;51.538;6.728;2023-04-26T04:48:19;6.60;99.90
19085;DHT22;9675;51.538;6.728;2023-04-26T04:50:48;6.60;99.90
19085;DHT22;9675;51.538;6.728;2023-04-26T04:53:15;6.60;99.90
19085;DHT22;9675;51.538;6.728;2023-04-26T04:55:42;6.60;99.90
19085;DHT22;9675;51.538;6.728;2023-04-26T04:58:10;6.60;99.90
19085;DHT22;9675;51.538;6.728;2023-04-26T05:00:39;6.60;99.90
19085;DHT22;9675;51.538;6.728;2023-04-26T05:03:06;6.60;99.90
19085;DHT22;9675;51.538;6.728;2023-04-26T05:05:35;6.50;99.90
19085;DHT22;9675;51.538;6.728;2023-04-26T05:08:04;6.60;99.90
19085;DHT22;9675;51.538;6.728;2023-04-26T05:10:32;6.60;99.90
19085;DHT22;9675;51.538;6.728;2023-04-26T05:13:00;6.50;99.90
19085;DHT22;9675;51.538;6.728;2023-04-26T05:15:28;6.50;99.90
19085;DHT22;9675;51.538;6.728;2023-04-26T05:17:55;6.50;99.90
19085;DHT22;9675;51.538;6.728;2023-04-26T05:20:24;6.50;99.90
19085;DHT22;9675;51.538;6.728;2023-04-26T05:22:51;6.50;99.90
19085;DHT22;9675;51.538;6.728;2023-04-26T05:25:19;6.40;99.90
19085;DHT22;9675;51.538;6.728;2023-04-26T05:27:47;6.40;99.90
19085;DHT22;9675;51.538;6.728;2023-04-26T05:30:14;6.40;99.90
19085;DHT22;9675;51.538;6.728;2023-04-26T05:32:41;6.40;99.90
19085;DHT22;9675;51.538;6.728;2023-04-26T05:35:08;6.40;99.90
19085;DHT22;9675;51.538;6.728;2023-04-26T05:37:35;6.40;99.90
19085;DHT22;9675;51.538;6.728;2023-04-26T05:40:05;6.40;99.90
19085;DHT22;9675;51.538;6.728;2023-04-26T05:42:36;6.40;99.90
19085;DHT22;9675;51.538;6.728;2023-04-26T05:45:03;6.40;99.90
19085;DHT22;9675;51.538;6.728;2023-04-26T05:47:31;6.40;99.90
19085;DHT22;9675;51.538;6.728;2023-04-26T05:49:58;6.40;99.90
19085;DHT22;9675;51.538;6.728;2023-04-26T05:52:25;6.40;99.90
19085;DHT22;9675;51.538;6.728;2023-04-26T05:54:52;6.40;99.90
19085;DHT22;9675;51.538;6.728;2023-04-26T05:57:19;6.40;99.90
19085;DHT22;9675;51.538;6.728;2023-04-26T05:59:48;6.40;99.90
19085;DHT22;9675;51.538;6.728;2023-04-26T06:02:15;6.40;99.90
19085;DHT22;9675;51.538;6.728;2023-04-26T06:04:42;6.40;99.90
19085;DHT22;9675;51.538;6.728;2023-04-26T06:07:09;6.50;99.90
19085;DHT22;9675;51.538;6.728;2023-04-26T06:09:36;6.50;99.90
19085;DHT22;9675;51.538;6.728;2023-04-26T06:12:04;6.40;99.90
19085;DHT22;9675;51.538;6.728;2023-04-26T06:14:31;6.50;99.90
19085;DHT22;9675;51.538;6.728;2023-04-26T06:16:59;6.50;99.90
19085;DHT22;9675;51.538;6.728;2023-04-26T06:19:26;6.50;99.90
19085;DHT22;9675;51.538;6.728;2023-04-26T06:21:53;6.50;99.90
19085;DHT22;9675;51.538;6.728;2023-04-26T06:24:22;6.50;99.90
19085;DHT22;9675;51.538;6.728;2023-04-26T06:26:50;6.60;99.90
19085;DHT22;9675;51.538;6.728;2023-04-26T06:29:17;6.60;99.90
19085;DHT22;9675;51.538;6.728;2023-04-26T06:31:44;6.70;99.90
19085;DHT22;9675;51.538;6.728;2023-04-26T06:34:12;6.70;99.90
19085;DHT22;9675;51.538;6.728;2023-04-26T06:36:39;6.70;99.90
19085;DHT22;9675;51.538;6.728;2023-04-26T06:39:06;6.80;99.90
19085;DHT22;9675;51.538;6.728;2023-04-26T06:41:33;6.80;99.90
19085;DHT22;9675;51.538;6.728;2023-04-26T06:44:00;6.80;99.90
19085;DHT22;9675;51.538;6.728;2023-04-26T06:46:27;6.90;99.90
19085;DHT22;9675;51.538;6.728;2023-04-26T06:48:54;6.90;99.90
19085;DHT22;9675;51.538;6.728;2023-04-26T06:51:23;7.00;99.90
19085;DHT22;9675;51.538;6.728;2023-04-26T06:53:50;7.00;99.90
19085;DHT22;9675;51.538;6.728;2023-04-26T06:56:17;7.00;99.90
19085;DHT22;9675;51.538;6.728;2023-04-26T06:58:58;7.10;99.90
19085;DHT22;9675;51.538;6.728;2023-04-26T07:01:26;7.10;99.90
19085;DHT22;9675;51.538;6.728;2023-04-26T07:03:54;7.10;99.90
19085;DHT22;9675;51.538;6.728;2023-04-26T07:06:24;7.20;99.90
19085;DHT22;9675;51.538;6.728;2023-04-26T07:08:52;7.20;99.90
19085;DHT22;9675;51.538;6.728;2023-04-26T07:11:19;7.30;99.90
19085;DHT22;9675;51.538;6.728;2023-04-26T07:13:46;7.30;99.90
19085;DHT22;9675;51.538;6.728;2023-04-26T07:16:13;7.40;99.90
19085;DHT22;9675;51.538;6.728;2023-04-26T07:18:40;7.40;99.90
19085;DHT22;9675;51.538;6.728;2023-04-26T07:21:08;7.50;99.90
19085;DHT22;9675;51.538;6.728;2023-04-26T07:23:36;7.50;99.90
19085;DHT22;9675;51.538;6.728;2023-04-26T07:26:03;7.50;99.90
19085;DHT22;9675;51.538;6.728;2023-04-26T07:28:31;7.60;99.90
19085;DHT22;9675;51.538;6.728;2023-04-26T07:30:58;7.70;99.90
19085;DHT22;9675;51.538;6.728;2023-04-26T07:33:26;7.70;99.90
19085;DHT22;9675;51.538;6.728;2023-04-26T07:35:53;7.80;99.90
19085;DHT22;9675;51.538;6.728;2023-04-26T07:38:22;7.80;99.90
19085;DHT22;9675;51.538;6.728;2023-04-26T07:40:51;7.90;99.90
19085;DHT22;9675;51.538;6.728;2023-04-26T07:43:19;8.00;99.90
19085;DHT22;9675;51.538;6.728;2023-04-26T07:45:46;8.10;99.90
19085;DHT22;9675;51.538;6.728;2023-04-26T07:48:13;8.10;99.90
19085;DHT22;9675;51.538;6.728;2023-04-26T07:50:41;8.20;99.90
19085;DHT22;9675;51.538;6.728;2023-04-26T07:53:08;8.20;99.90
19085;DHT22;9675;51.538;6.728;2023-04-26T07:55:35;8.30;99.90
19085;DHT22;9675;51.538;6.728;2023-04-26T07:58:04;8.40;99.90
19085;DHT22;9675;51.538;6.728;2023-04-26T08:00:32;8.40;99.90
19085;DHT22;9675;51.538;6.728;2023-04-26T08:03:02;8.50;99.90
19085;DHT22;9675;51.538;6.728;2023-04-26T08:05:29;8.50;99.90
19085;DHT22;9675;51.538;6.728;2023-04-26T08:07:56;8.60;99.90
19085;DHT22;9675;51.538;6.728;2023-04-26T08:10:25;8.70;99.90
19085;DHT22;9675;51.538;6.728;2023-04-26T08:12:52;8.70;99.90
19085;DHT22;9675;51.538;6.728;2023-04-26T08:15:23;8.80;99.90
19085;DHT22;9675;51.538;6.728;2023-04-26T08:17:50;8.80;99.90
19085;DHT22;9675;51.538;6.728;2023-04-26T08:20:18;8.90;99.90
19085;DHT22;9675;51.538;6.728;2023-04-26T08:22:45;9.00;99.90
19085;DHT22;9675;51.538;6.728;2023-04-26T08:25:12;9.00;99.90
19085;DHT22;9675;51.538;6.728;2023-04-26T08:27:39;9.10;99.90
19085;DHT22;9675;51.538;6.728;2023-04-26T08:30:07;9.10;99.90
19085;DHT22;9675;51.538;6.728;2023-04-26T08:32:36;9.20;99.90
19085;DHT22;9675;51.538;6.728;2023-04-26T08:35:03;9.20;99.90
19085;DHT22;9675;51.538;6.728;2023-04-26T08:37:30;9.30;99.90
19085;DHT22;9675;51.538;6.728;2023-04-26T08:39:58;9.30;99.90
19085;DHT22;9675;51.538;6.728;2023-04-26T08:42:26;9.30;99.90
19085;DHT22;9675;51.538;6.728;2023-04-26T08:44:54;9.40;99.90
19085;DHT22;9675;51.538;6.728;2023-04-26T08:47:27;9.50;99.90
19085;DHT22;9675;51.538;6.728;2023-04-26T08:49:57;9.50;99.90
19085;DHT22;9675;51.538;6.728;2023-04-26T08:52:28;9.60;99.90
19085;DHT22;9675;51.538;6.728;2023-04-26T08:54:58;9.60;99.90
19085;DHT22;9675;51.538;6.728;2023-04-26T08:57:26;9.60;99.90
19085;DHT22;9675;51.538;6.728;2023-04-26T08:59:55;9.70;99.90
19085;DHT22;9675;51.538;6.728;2023-04-26T09:02:23;9.70;99.90
19085;DHT22;9675;51.538;6.728;2023-04-26T09:04:50;9.80;99.90
19085;DHT22;9675;51.538;6.728;2023-04-26T09:07:21;9.80;99.90
19085;DHT22;9675;51.538;6.728;2023-04-26T09:09:53;9.80;99.90
19085;DHT22;9675;51.538;6.728;2023-04-26T09:12:23;9.90;99.90
19085;DHT22;9675;51.538;6.728;2023-04-26T09:14:50;9.90;99.90
19085;DHT22;9675;51.538;6.728;2023-04-26T09:17:27;10.00;99.90
19085;DHT22;9675;51.538;6.728;2023-04-26T09:19:56;10.00;99.90
19085;DHT22;9675;51.538;6.728;2023-04-26T09:22:29;10.00;99.90
19085;DHT22;9675;51.538;6.728;2023-04-26T09:24:57;10.00;99.90
19085;DHT22;9675;51.538;6.728;2023-04-26T09:27:32;10.10;99.90
19085;DHT22;9675;51.538;6.728;2023-04-26T09:30:03;10.10;99.90
19085;DHT22;9675;51.538;6.728;2023-04-26T09:32:45;10.10;99.90
19085;DHT22;9675;51.538;6.728;2023-04-26T09:35:22;10.20;99.90
19085;DHT22;9675;51.538;6.728;2023-04-26T09:37:54;10.10;99.90
19085;DHT22;9675;51.538;6.728;2023-04-26T09:40:25;10.20;99.90
19085;DHT22;9675;51.538;6.728;2023-04-26T09:42:58;10.20;99.90
19085;DHT22;9675;51.538;6.728;2023-04-26T09:45:27;10.20;99.90
19085;DHT22;9675;51.538;6.728;2023-04-26T09:48:11;10.30;99.90
19085;DHT22;9675;51.538;6.728;2023-04-26T09:50:41;10.30;99.90
19085;DHT22;9675;51.538;6.728;2023-04-26T09:53:11;10.40;99.90
19085;DHT22;9675;51.538;6.728;2023-04-26T09:55:51;10.40;99.90
19085;DHT22;9675;51.538;6.728;2023-04-26T09:58:19;10.40;99.90
19085;DHT22;9675;51.538;6.728;2023-04-26T10:00:49;10.50;99.90
19085;DHT22;9675;51.538;6.728;2023-04-26T10:03:18;10.50;99.90
19085;DHT22;9675;51.538;6.728;2023-04-26T10:05:46;10.60;99.90
19085;DHT22;9675;51.538;6.728;2023-04-26T10:08:15;10.60;99.90
19085;DHT22;9675;51.538;6.728;2023-04-26T10:10:42;10.60;99.90
19085;DHT22;9675;51.538;6.728;2023-04-26T10:13:10;10.70;99.90
19085;DHT22;9675;51.538;6.728;2023-04-26T10:15:38;10.70;99.90
19085;DHT22;9675;51.538;6.728;2023-04-26T10:18:05;10.80;99.90
19085;DHT22;9675;51.538;6.728;2023-04-26T10:20:33;10.90;99.90
19085;DHT22;9675;51.538;6.728;2023-04-26T10:23:10;11.00;99.90
19085;DHT22;9675;51.538;6.728;2023-04-26T10:25:46;11.10;99.90
19085;DHT22;9675;51.538;6.728;2023-04-26T10:28:14;11.30;99.90
19085;DHT22;9675;51.538;6.728;2023-04-26T10:30:56;11.40;99.90
19085;DHT22;9675;51.538;6.728;2023-04-26T10:33:25;11.50;99.90
19085;DHT22;9675;51.538;6.728;2023-04-26T10:36:07;11.60;99.90
19085;DHT22;9675;51.538;6.728;2023-04-26T10:38:38;11.70;99.90
19085;DHT22;9675;51.538;6.728;2023-04-26T10:41:30;11.80;99.90
19085;DHT22;9675;51.538;6.728;2023-04-26T10:47:04;12.10;99.90
19085;DHT22;9675;51.538;6.728;2023-04-26T10:49:43;12.20;99.90
19085;DHT22;9675;51.538;6.728;2023-04-26T10:52:14;12.20;99.90
19085;DHT22;9675;51.538;6.728;2023-04-26T10:54:48;12.30;99.90
19085;DHT22;9675;51.538;6.728;2023-04-26T10:57:18;12.40;99.90
19085;DHT22;9675;51.538;6.728;2023-04-26T11:00:18;12.50;99.90
19085;DHT22;9675;51.538;6.728;2023-04-26T11:02:55;12.50;99.90
19085;DHT22;9675;51.538;6.728;2023-04-26T11:05:49;12.70;99.90
19085;DHT22;9675;51.538;6.728;2023-04-26T11:08:19;12.70;99.90
19085;DHT22;9675;51.538;6.728;2023-04-26T11:10:50;12.80;99.90
19085;DHT22;9675;51.538;6.728;2023-04-26T11:13:19;12.90;99.90
19085;DHT22;9675;51.538;6.728;2023-04-26T11:15:46;12.90;99.90
19085;DHT22;9675;51.538;6.728;2023-04-26T11:18:19;13.00;99.90
19085;DHT22;9675;51.538;6.728;2023-04-26T11:20:47;13.00;99.90
19085;DHT22;9675;51.538;6.728;2023-04-26T11:23:14;13.10;99.90
19085;DHT22;9675;51.538;6.728;2023-04-26T11:25:44;13.20;99.90
19085;DHT22;9675;51.538;6.728;2023-04-26T11:28:11;13.20;99.90
19085;DHT22;9675;51.538;6.728;2023-04-26T11:30:40;13.30;99.90
19085;DHT22;9675;51.538;6.728;2023-04-26T11:33:15;13.40;99.90
19085;DHT22;9675;51.538;6.728;2023-04-26T11:35:45;13.40;99.90
19085;DHT22;9675;51.538;6.728;2023-04-26T11:38:13;13.50;99.90
19085;DHT22;9675;51.538;6.728;2023-04-26T11:40:41;13.50;99.90
19085;DHT22;9675;51.538;6.728;2023-04-26T11:43:09;13.60;99.90
19085;DHT22;9675;51.538;6.728;2023-04-26T11:45:39;13.60;99.90
19085;DHT22;9675;51.538;6.728;2023-04-26T11:48:09;13.70;99.90
19085;DHT22;9675;51.538;6.728;2023-04-26T11:50:38;13.80;99.90
19085;DHT22;9675;51.538;6.728;2023-04-26T11:53:07;13.80;99.90
19085;DHT22;9675;51.538;6.728;2023-04-26T11:55:34;13.90;99.90
19085;DHT22;9675;51.538;6.728;2023-04-26T11:58:08;13.90;99.90
19085;DHT22;9675;51.538;6.728;2023-04-26T12:00:55;14.00;99.90
19085;DHT22;9675;51.538;6.728;2023-04-26T12:03:30;14.00;99.90
19085;DHT22;9675;51.538;6.728;2023-04-26T12:05:59;14.10;99.90
19085;DHT22;9675;51.538;6.728;2023-04-26T12:08:27;14.10;99.90
19085;DHT22;9675;51.538;6.728;2023-04-26T12:10:57;14.20;99.90
19085;DHT22;9675;51.538;6.728;2023-04-26T12:13:26;14.30;99.90
19085;DHT22;9675;51.538;6.728;2023-04-26T12:15:53;14.30;99.90
19085;DHT22;9675;51.538;6.728;2023-04-26T12:18:29;14.40;99.90
19085;DHT22;9675;51.538;6.728;2023-04-26T12:20:57;14.40;99.90
19085;DHT22;9675;51.538;6.728;2023-04-26T12:23:36;14.50;99.90
19085;DHT22;9675;51.538;6.728;2023-04-26T12:26:04;14.50;99.90
19085;DHT22;9675;51.538;6.728;2023-04-26T12:28:35;14.50;99.90
19085;DHT22;9675;51.538;6.728;2023-04-26T12:31:03;14.50;99.90
19085;DHT22;9675;51.538;6.728;2023-04-26T12:33:31;14.60;99.90
19085;DHT22;9675;51.538;6.728;2023-04-26T12:36:05;14.70;99.90
19085;DHT22;9675;51.538;6.728;2023-04-26T12:38:33;14.70;99.90
19085;DHT22;9675;51.538;6.728;2023-04-26T12:41:01;14.70;99.90
19085;DHT22;9675;51.538;6.728;2023-04-26T12:43:28;14.80;99.90
19085;DHT22;9675;51.538;6.728;2023-04-26T12:45:55;14.80;99.90
19085;DHT22;9675;51.538;6.728;2023-04-26T12:48:23;14.80;99.90
19085;DHT22;9675;51.538;6.728;2023-04-26T12:50:50;14.80;99.90
19085;DHT22;9675;51.538;6.728;2023-04-26T12:53:17;14.80;99.90
19085;DHT22;9675;51.538;6.728;2023-04-26T12:55:44;14.90;99.90
19085;DHT22;9675;51.538;6.728;2023-04-26T12:58:11;14.90;99.90
19085;DHT22;9675;51.538;6.728;2023-04-26T13:00:38;14.90;99.90
19085;DHT22;9675;51.538;6.728;2023-04-26T13:03:05;15.00;99.90
19085;DHT22;9675;51.538;6.728;2023-04-26T13:05:34;15.00;99.90
19085;DHT22;9675;51.538;6.728;2023-04-26T13:08:01;15.00;99.90
19085;DHT22;9675;51.538;6.728;2023-04-26T13:10:28;15.00;99.90
19085;DHT22;9675;51.538;6.728;2023-04-26T13:12:55;15.00;99.90
19085;DHT22;9675;51.538;6.728;2023-04-26T13:15:22;15.00;99.90
19085;DHT22;9675;51.538;6.728;2023-04-26T13:17:51;15.10;99.90
19085;DHT22;9675;51.538;6.728;2023-04-26T13:20:18;15.10;99.90
19085;DHT22;9675;51.538;6.728;2023-04-26T13:22:47;15.00;99.90
19085;DHT22;9675;51.538;6.728;2023-04-26T13:25:16;15.00;99.90
19085;DHT22;9675;51.538;6.728;2023-04-26T13:27:43;15.10;99.90
19085;DHT22;9675;51.538;6.728;2023-04-26T13:30:12;15.10;99.90
19085;DHT22;9675;51.538;6.728;2023-04-26T13:32:39;15.10;99.90
19085;DHT22;9675;51.538;6.728;2023-04-26T13:35:07;15.10;99.90
19085;DHT22;9675;51.538;6.728;2023-04-26T13:37:34;15.10;99.90
19085;DHT22;9675;51.538;6.728;2023-04-26T13:40:03;15.10;99.90
19085;DHT22;9675;51.538;6.728;2023-04-26T13:42:31;15.20;99.90
19085;DHT22;9675;51.538;6.728;2023-04-26T13:44:58;15.20;99.90
19085;DHT22;9675;51.538;6.728;2023-04-26T13:47:25;15.20;99.90
19085;DHT22;9675;51.538;6.728;2023-04-26T13:49:53;15.20;99.90
19085;DHT22;9675;51.538;6.728;2023-04-26T13:52:20;15.30;99.90
19085;DHT22;9675;51.538;6.728;2023-04-26T13:54:47;15.30;99.90
19085;DHT22;9675;51.538;6.728;2023-04-26T13:57:16;15.30;99.90
19085;DHT22;9675;51.538;6.728;2023-04-26T13:59:43;15.30;99.90
19085;DHT22;9675;51.538;6.728;2023-04-26T14:02:10;15.30;99.90
19085;DHT22;9675;51.538;6.728;2023-04-26T14:04:38;15.30;99.90
19085;DHT22;9675;51.538;6.728;2023-04-26T14:07:08;15.40;99.90
19085;DHT22;9675;51.538;6.728;2023-04-26T14:09:35;15.40;99.90
19085;DHT22;9675;51.538;6.728;2023-04-26T14:12:02;15.40;99.90
19085;DHT22;9675;51.538;6.728;2023-04-26T14:14:31;15.40;99.90
19085;DHT22;9675;51.538;6.728;2023-04-26T14:16:58;15.40;99.90
19085;DHT22;9675;51.538;6.728;2023-04-26T14:19:25;15.40;99.90
19085;DHT22;9675;51.538;6.728;2023-04-26T14:21:52;15.40;99.90
19085;DHT22;9675;51.538;6.728;2023-04-26T14:24:19;15.40;99.90
19085;DHT22;9675;51.538;6.728;2023-04-26T14:26:46;15.40;99.90
19085;DHT22;9675;51.538;6.728;2023-04-26T14:29:13;15.40;99.90
19085;DHT22;9675;51.538;6.728;2023-04-26T14:31:41;15.40;99.90
19085;DHT22;9675;51.538;6.728;2023-04-26T14:34:09;15.40;99.90
19085;DHT22;9675;51.538;6.728;2023-04-26T14:36:37;15.50;99.90
19085;DHT22;9675;51.538;6.728;2023-04-26T14:39:04;15.50;99.90
19085;DHT22;9675;51.538;6.728;2023-04-26T14:41:31;15.50;99.90
19085;DHT22;9675;51.538;6.728;2023-04-26T14:43:58;15.50;99.90
19085;DHT22;9675;51.538;6.728;2023-04-26T14:46:25;15.50;99.90
19085;DHT22;9675;51.538;6.728;2023-04-26T14:48:54;15.40;99.90
19085;DHT22;9675;51.538;6.728;2023-04-26T14:51:21;15.40;99.90
19085;DHT22;9675;51.538;6.728;2023-04-26T14:53:48;15.50;99.90
19085;DHT22;9675;51.538;6.728;2023-04-26T14:56:15;15.50;99.90
19085;DHT22;9675;51.538;6.728;2023-04-26T14:58:42;15.50;99.90
19085;DHT22;9675;51.538;6.728;2023-04-26T15:01:09;15.40;99.90
19085;DHT22;9675;51.538;6.728;2023-04-26T15:03:36;15.40;99.90
19085;DHT22;9675;51.538;6.728;2023-04-26T15:06:07;15.40;99.90
19085;DHT22;9675;51.538;6.728;2023-04-26T15:08:34;15.40;99.90
19085;DHT22;9675;51.538;6.728;2023-04-26T15:11:02;15.40;99.90
19085;DHT22;9675;51.538;6.728;2023-04-26T15:13:29;15.40;99.90
19085;DHT22;9675;51.538;6.728;2023-04-26T15:15:56;15.40;99.90
19085;DHT22;9675;51.538;6.728;2023-04-26T15:18:27;15.40;99.90
19085;DHT22;9675;51.538;6.728;2023-04-26T15:20:54;15.40;99.90
19085;DHT22;9675;51.538;6.728;2023-04-26T15:23:23;15.40;99.90
19085;DHT22;9675;51.538;6.728;2023-04-26T15:25:50;15.40;99.90
19085;DHT22;9675;51.538;6.728;2023-04-26T15:28:17;15.40;99.90
19085;DHT22;9675;51.538;6.728;2023-04-26T15:30:44;15.40;99.90
19085;DHT22;9675;51.538;6.728;2023-04-26T15:33:12;15.40;99.90
19085;DHT22;9675;51.538;6.728;2023-04-26T15:35:42;15.40;99.90
19085;DHT22;9675;51.538;6.728;2023-04-26T15:38:08;15.40;99.90
19085;DHT22;9675;51.538;6.728;2023-04-26T15:40:37;15.40;99.90
19085;DHT22;9675;51.538;6.728;2023-04-26T15:43:04;15.40;99.90
19085;DHT22;9675;51.538;6.728;2023-04-26T15:45:31;15.40;99.90
19085;DHT22;9675;51.538;6.728;2023-04-26T15:48:00;15.40;99.90
19085;DHT22;9675;51.538;6.728;2023-04-26T15:50:27;15.40;99.90
19085;DHT22;9675;51.538;6.728;2023-04-26T15:52:54;15.40;99.90
19085;DHT22;9675;51.538;6.728;2023-04-26T15:55:22;15.40;99.90
19085;DHT22;9675;51.538;6.728;2023-04-26T15:57:51;15.40;99.90
19085;DHT22;9675;51.538;6.728;2023-04-26T16:00:19;15.40;99.90
19085;DHT22;9675;51.538;6.728;2023-04-26T16:02:46;15.30;99.90
19085;DHT22;9675;51.538;6.728;2023-04-26T16:05:13;15.20;99.90